TimeCDT,TemperatureF,Dew PointF,Humidity,Sea Level PressureIn,VisibilityMPH,Wind Direction,Wind SpeedMPH,Gust SpeedMPH,PrecipitationIn,Events,Conditions,WindDirDegrees,DateUTC
12:53 AM,48.0,41.0,77,29.85,10.0,Calm,Calm,-,N/A,,Partly Cloudy,0,2012-10-20 05:53:00
1:53 AM,46.9,39.9,77,29.84,10.0,Calm,Calm,-,N/A,,Clear,0,2012-10-20 06:53:00
2:53 AM,45.0,39.0,80,29.86,10.0,Calm,Calm,-,N/A,,Clear,0,2012-10-20 07:53:00
3:53 AM,43.0,39.9,89,29.84,10.0,Calm,Calm,-,N/A,,Clear,0,2012-10-20 08:53:00
4:53 AM,44.1,39.9,85,29.85,10.0,Calm,Calm,-,N/A,,Clear,0,2012-10-20 09:53:00
5:53 AM,43.0,39.0,86,29.86,10.0,Calm,Calm,-,N/A,,Clear,0,2012-10-20 10:53:00
6:53 AM,44.1,39.0,82,29.86,10.0,Calm,Calm,-,N/A,,Clear,0,2012-10-20 11:53:00
7:53 AM,44.1,39.9,85,29.87,10.0,SE,3.5,-,N/A,,Clear,140,2012-10-20 12:53:00
8:53 AM,46.9,39.9,77,29.87,10.0,SE,5.8,-,N/A,,Clear,130,2012-10-20 13:53:00
9:53 AM,52.0,42.1,69,29.87,10.0,ESE,6.9,-,N/A,,Clear,120,2012-10-20 14:53:00
11:53 AM,60.1,42.1,51,29.86,10.0,SSE,6.9,-,N/A,,Clear,150,2012-10-20 16:53:00
12:53 PM,64.0,43.0,46,29.83,10.0,SE,8.1,-,N/A,,Clear,130,2012-10-20 17:53:00
1:53 PM,66.0,41.0,40,29.79,10.0,ESE,10.4,-,N/A,,Clear,120,2012-10-20 18:53:00
2:53 PM,68.0,39.0,35,29.77,10.0,SE,10.4,-,N/A,,Clear,130,2012-10-20 19:53:00
3:53 PM,69.1,39.0,33,29.77,10.0,SE,8.1,-,N/A,,Clear,130,2012-10-20 20:53:00
4:53 PM,68.0,39.0,35,29.75,10.0,SE,9.2,-,N/A,,Clear,140,2012-10-20 21:53:00
5:53 PM,66.9,39.9,37,29.74,10.0,SE,8.1,-,N/A,,Clear,140,2012-10-20 22:53:00
6:53 PM,62.1,39.9,44,29.75,10.0,East,4.6,-,N/A,,Clear,90,2012-10-20 23:53:00
7:53 PM,60.1,39.9,47,29.76,10.0,ENE,5.8,-,N/A,,Clear,70,2012-10-21 00:53:00
8:53 PM,57.0,41.0,55,29.78,10.0,East,6.9,-,N/A,,Clear,80,2012-10-21 01:53:00
9:53 PM,54.0,41.0,62,29.78,10.0,East,8.1,-,N/A,,Clear,100,2012-10-21 02:53:00
10:53 PM,54.0,42.1,64,29.78,10.0,ESE,9.2,-,N/A,,Clear,110,2012-10-21 03:53:00
11:53 PM,52.0,42.1,69,29.78,10.0,East,6.9,-,N/A,,Clear,100,2012-10-21 04:53:00